This is the latest recevied weather packets stored in our database for station/object AI5BL. If no packets are shown the sender has not sent any weather packets the latest 1 day(s).
| Time | Temp. | Humidity | Pressure | Rain* | Wind** | Luminosity | Snow |
|---|---|---|---|---|---|---|---|
| 1778003190 | 27.22° C | 60% | 1015.6 hPa | 0 mm | 0.45 m/s, 54° | 812 W/m² | - |
| 1778002886 | 27.22° C | 59% | 1015.6 hPa | 0 mm | 1.34 m/s, 171° | 842 W/m² | - |
| 1778002583 | 27.22° C | 58% | 1015.8 hPa | 0 mm | 0 m/s | 628 W/m² | - |
| 1778002279 | 26.67° C | 62% | 1015.9 hPa | 0 mm | 0.45 m/s, 95° | 874 W/m² | - |
| 1778001977 | 26.11° C | 62% | 1015.9 hPa | 0 mm | 0.45 m/s, 163° | 820 W/m² | - |
| 1778001674 | 26.67° C | 60% | 1016 hPa | 0 mm | 0 m/s | 903 W/m² | - |
| 1778001368 | 26.67° C | 59% | 1015.8 hPa | 0 mm | 0.45 m/s, 75° | 593 W/m² | - |
| 1778001066 | 26.11° C | 63% | 1016 hPa | 0 mm | 0.89 m/s, 102° | 795 W/m² | - |
| 1778000762 | 26.11° C | 61% | 1016 hPa | 0 mm | 0.89 m/s, 140° | 814 W/m² | - |
| 1778000459 | 26.67° C | 58% | 1016.1 hPa | 0 mm | 0.89 m/s, 109° | 743 W/m² | - |
| 1778000155 | 26.11° C | 64% | 1015.8 hPa | 0 mm | 0.45 m/s, 66° | 767 W/m² | - |
| 1777999851 | 26.11° C | 62% | 1016.2 hPa | 0 mm | 0 m/s | 350 W/m² | - |
| 1777999547 | 26.11° C | 64% | 1016 hPa | 0 mm | 0.45 m/s, 73° | 772 W/m² | - |
| 1777999245 | 25.56° C | 63% | 1016.1 hPa | 0 mm | 1.34 m/s, 148° | 770 W/m² | - |
| 1777998943 | 25.56° C | 63% | 1015.8 hPa | 0 mm | 0 m/s | 697 W/m² | - |
| 1777998639 | 25.56° C | 66% | 1015.9 hPa | 0 mm | 0.89 m/s, 107° | 644 W/m² | - |
| 1777998332 | 25.56° C | 64% | 1015.9 hPa | 0 mm | 0.89 m/s, 42° | 742 W/m² | - |
| 1777998029 | 25° C | 65% | 1015.5 hPa | 0 mm | 0.89 m/s, 76° | 731 W/m² | - |
| 1777997726 | 25° C | 64% | 1015.7 hPa | 0 mm | 1.34 m/s, 90° | 688 W/m² | - |
| 1777997423 | 24.44° C | 68% | 1015.8 hPa | 0 mm | 0.45 m/s, 108° | 763 W/m² | - |
| 1777997121 | 24.44° C | 66% | 1015.8 hPa | 0 mm | 0.45 m/s, 138° | 740 W/m² | - |
| 1777996818 | 24.44° C | 69% | 1016 hPa | 0 mm | 0.45 m/s, 98° | 565 W/m² | - |
| 1777996514 | 24.44° C | 64% | 1015.8 hPa | 0 mm | 0 m/s | 535 W/m² | - |
| 1777996211 | 24.44° C | 69% | 1016.1 hPa | 0 mm | 0.89 m/s, 101° | 621 W/m² | - |
| 1777995907 | 23.89° C | 68% | 1016 hPa | 0 mm | 1.79 m/s, 204° | 625 W/m² | - |
* Rain latest hour (hover to see other rain measurements)
** Current wind speed in m/s (hover to see current wind gust speed)